sensor_id;sensor_type;location;lat;lon;timestamp;temperature;humidity
21762;DHT22;11203;50.870;20.682;2023-03-14T00:01:18;6.50;1.00
21762;DHT22;11203;50.870;20.682;2023-03-14T00:03:46;6.50;99.90
21762;DHT22;11203;50.870;20.682;2023-03-14T00:06:13;6.50;1.00
21762;DHT22;11203;50.870;20.682;2023-03-14T00:08:41;6.50;1.00
21762;DHT22;11203;50.870;20.682;2023-03-14T00:11:14;6.40;1.00
21762;DHT22;11203;50.870;20.682;2023-03-14T00:13:42;6.40;1.00
21762;DHT22;11203;50.870;20.682;2023-03-14T00:16:11;6.50;99.90
21762;DHT22;11203;50.870;20.682;2023-03-14T00:18:38;6.50;1.00
21762;DHT22;11203;50.870;20.682;2023-03-14T00:21:06;6.30;1.00
21762;DHT22;11203;50.870;20.682;2023-03-14T00:23:35;6.30;1.00
21762;DHT22;11203;50.870;20.682;2023-03-14T00:26:03;6.30;1.00
21762;DHT22;11203;50.870;20.682;2023-03-14T00:28:30;6.40;1.00
21762;DHT22;11203;50.870;20.682;2023-03-14T00:30:57;6.30;99.90
21762;DHT22;11203;50.870;20.682;2023-03-14T00:33:23;6.20;30.00
21762;DHT22;11203;50.870;20.682;2023-03-14T00:35:57;6.20;33.60
21762;DHT22;11203;50.870;20.682;2023-03-14T00:38:25;6.20;99.90
21762;DHT22;11203;50.870;20.682;2023-03-14T00:40:51;6.20;99.90
21762;DHT22;11203;50.870;20.682;2023-03-14T00:43:19;6.20;99.90
21762;DHT22;11203;50.870;20.682;2023-03-14T00:45:48;6.20;99.90
21762;DHT22;11203;50.870;20.682;2023-03-14T00:48:18;6.20;99.90
21762;DHT22;11203;50.870;20.682;2023-03-14T00:50:45;6.20;99.90
21762;DHT22;11203;50.870;20.682;2023-03-14T00:53:11;6.30;99.90
21762;DHT22;11203;50.870;20.682;2023-03-14T00:55:39;6.30;99.90
21762;DHT22;11203;50.870;20.682;2023-03-14T00:58:06;6.40;99.90
21762;DHT22;11203;50.870;20.682;2023-03-14T01:00:32;6.40;99.90
21762;DHT22;11203;50.870;20.682;2023-03-14T01:02:58;6.40;99.90
21762;DHT22;11203;50.870;20.682;2023-03-14T01:05:25;6.50;99.90
21762;DHT22;11203;50.870;20.682;2023-03-14T01:07:51;6.50;99.90
21762;DHT22;11203;50.870;20.682;2023-03-14T01:10:17;6.50;99.90
21762;DHT22;11203;50.870;20.682;2023-03-14T01:12:43;6.50;1.00
21762;DHT22;11203;50.870;20.682;2023-03-14T01:15:10;6.50;1.00
21762;DHT22;11203;50.870;20.682;2023-03-14T01:17:36;6.50;1.00
21762;DHT22;11203;50.870;20.682;2023-03-14T01:20:04;6.40;99.90
21762;DHT22;11203;50.870;20.682;2023-03-14T01:22:31;6.30;99.90
21762;DHT22;11203;50.870;20.682;2023-03-14T01:24:58;6.30;1.00
21762;DHT22;11203;50.870;20.682;2023-03-14T01:27:24;6.30;99.90
21762;DHT22;11203;50.870;20.682;2023-03-14T01:29:51;6.20;99.90
21762;DHT22;11203;50.870;20.682;2023-03-14T01:32:17;6.10;1.00
21762;DHT22;11203;50.870;20.682;2023-03-14T01:34:46;6.00;1.00
21762;DHT22;11203;50.870;20.682;2023-03-14T01:37:12;6.00;99.90
21762;DHT22;11203;50.870;20.682;2023-03-14T01:39:38;6.00;1.00
21762;DHT22;11203;50.870;20.682;2023-03-14T01:42:04;6.00;99.90
21762;DHT22;11203;50.870;20.682;2023-03-14T01:44:59;6.00;1.00
21762;DHT22;11203;50.870;20.682;2023-03-14T01:47:26;5.90;1.00
21762;DHT22;11203;50.870;20.682;2023-03-14T01:50:03;5.80;1.00
21762;DHT22;11203;50.870;20.682;2023-03-14T01:52:44;5.80;1.00
21762;DHT22;11203;50.870;20.682;2023-03-14T01:55:15;5.80;99.90
21762;DHT22;11203;50.870;20.682;2023-03-14T01:57:45;5.80;99.90
21762;DHT22;11203;50.870;20.682;2023-03-14T02:00:17;5.80;99.90
21762;DHT22;11203;50.870;20.682;2023-03-14T02:06:10;5.70;99.90
21762;DHT22;11203;50.870;20.682;2023-03-14T02:08:37;5.70;99.90
21762;DHT22;11203;50.870;20.682;2023-03-14T02:11:06;5.70;1.00
21762;DHT22;11203;50.870;20.682;2023-03-14T02:13:34;5.70;99.90
21762;DHT22;11203;50.870;20.682;2023-03-14T02:16:00;5.60;99.90
21762;DHT22;11203;50.870;20.682;2023-03-14T02:18:26;5.60;99.90
21762;DHT22;11203;50.870;20.682;2023-03-14T02:21:18;5.60;99.90
21762;DHT22;11203;50.870;20.682;2023-03-14T02:24:23;5.50;99.90
21762;DHT22;11203;50.870;20.682;2023-03-14T02:27:08;5.50;1.00
21762;DHT22;11203;50.870;20.682;2023-03-14T02:29:41;5.40;1.00
21762;DHT22;11203;50.870;20.682;2023-03-14T02:32:33;5.40;1.00
21762;DHT22;11203;50.870;20.682;2023-03-14T02:35:05;5.40;1.00
21762;DHT22;11203;50.870;20.682;2023-03-14T02:37:38;5.50;1.00
21762;DHT22;11203;50.870;20.682;2023-03-14T02:40:08;5.60;99.90
21762;DHT22;11203;50.870;20.682;2023-03-14T02:42:35;5.50;1.00
21762;DHT22;11203;50.870;20.682;2023-03-14T02:47:34;5.60;99.90
21762;DHT22;11203;50.870;20.682;2023-03-14T02:50:10;5.70;99.90
21762;DHT22;11203;50.870;20.682;2023-03-14T02:52:39;5.60;99.90
21762;DHT22;11203;50.870;20.682;2023-03-14T02:55:05;5.60;1.00
21762;DHT22;11203;50.870;20.682;2023-03-14T02:57:32;5.60;99.90
21762;DHT22;11203;50.870;20.682;2023-03-14T02:59:59;5.70;99.90
21762;DHT22;11203;50.870;20.682;2023-03-14T03:02:26;5.60;1.00
21762;DHT22;11203;50.870;20.682;2023-03-14T03:04:53;5.70;99.90
21762;DHT22;11203;50.870;20.682;2023-03-14T03:07:20;5.70;99.90
21762;DHT22;11203;50.870;20.682;2023-03-14T03:09:46;5.70;99.90
21762;DHT22;11203;50.870;20.682;2023-03-14T03:12:12;5.70;99.90
21762;DHT22;11203;50.870;20.682;2023-03-14T03:14:39;5.70;99.90
21762;DHT22;11203;50.870;20.682;2023-03-14T03:17:05;5.70;99.90
21762;DHT22;11203;50.870;20.682;2023-03-14T03:19:33;5.70;99.90
21762;DHT22;11203;50.870;20.682;2023-03-14T03:21:59;5.70;99.90
21762;DHT22;11203;50.870;20.682;2023-03-14T03:24:26;5.70;99.90
21762;DHT22;11203;50.870;20.682;2023-03-14T03:26:53;5.50;99.90
21762;DHT22;11203;50.870;20.682;2023-03-14T03:29:19;5.50;1.00
21762;DHT22;11203;50.870;20.682;2023-03-14T03:31:45;5.60;1.00
21762;DHT22;11203;50.870;20.682;2023-03-14T03:34:12;5.50;1.00
21762;DHT22;11203;50.870;20.682;2023-03-14T03:36:40;5.50;99.90
21762;DHT22;11203;50.870;20.682;2023-03-14T03:39:06;5.60;99.90
21762;DHT22;11203;50.870;20.682;2023-03-14T03:41:32;5.60;99.90
21762;DHT22;11203;50.870;20.682;2023-03-14T03:43:58;5.60;1.00
21762;DHT22;11203;50.870;20.682;2023-03-14T03:46:25;5.50;1.00
21762;DHT22;11203;50.870;20.682;2023-03-14T03:48:55;5.50;1.00
21762;DHT22;11203;50.870;20.682;2023-03-14T03:51:21;5.50;1.00
21762;DHT22;11203;50.870;20.682;2023-03-14T03:53:47;5.50;1.00
21762;DHT22;11203;50.870;20.682;2023-03-14T03:56:14;5.50;99.90
21762;DHT22;11203;50.870;20.682;2023-03-14T03:58:40;5.60;99.90
21762;DHT22;11203;50.870;20.682;2023-03-14T04:01:08;5.70;99.90
21762;DHT22;11203;50.870;20.682;2023-03-14T04:03:36;5.70;99.90
21762;DHT22;11203;50.870;20.682;2023-03-14T04:06:07;5.70;99.90
21762;DHT22;11203;50.870;20.682;2023-03-14T04:08:34;5.70;99.90
21762;DHT22;11203;50.870;20.682;2023-03-14T04:11:01;5.70;99.90
21762;DHT22;11203;50.870;20.682;2023-03-14T04:13:28;5.70;99.90
21762;DHT22;11203;50.870;20.682;2023-03-14T04:15:55;5.60;99.90
21762;DHT22;11203;50.870;20.682;2023-03-14T04:18:21;5.70;99.90
21762;DHT22;11203;50.870;20.682;2023-03-14T04:20:54;5.80;99.90
21762;DHT22;11203;50.870;20.682;2023-03-14T04:23:22;5.80;99.90
21762;DHT22;11203;50.870;20.682;2023-03-14T04:25:51;5.90;1.00
21762;DHT22;11203;50.870;20.682;2023-03-14T04:28:17;5.80;28.70
21762;DHT22;11203;50.870;20.682;2023-03-14T04:30:44;5.80;1.00
21762;DHT22;11203;50.870;20.682;2023-03-14T04:33:10;5.90;16.40
21762;DHT22;11203;50.870;20.682;2023-03-14T04:35:38;5.80;60.10
21762;DHT22;11203;50.870;20.682;2023-03-14T04:38:05;6.00;1.00
21762;DHT22;11203;50.870;20.682;2023-03-14T04:40:31;6.00;99.90
21762;DHT22;11203;50.870;20.682;2023-03-14T04:42:57;5.90;18.60
21762;DHT22;11203;50.870;20.682;2023-03-14T04:45:23;5.90;99.90
21762;DHT22;11203;50.870;20.682;2023-03-14T04:47:49;6.00;1.00
21762;DHT22;11203;50.870;20.682;2023-03-14T04:50:16;6.10;99.90
21762;DHT22;11203;50.870;20.682;2023-03-14T04:52:41;6.10;99.90
21762;DHT22;11203;50.870;20.682;2023-03-14T04:55:08;6.00;12.10
21762;DHT22;11203;50.870;20.682;2023-03-14T04:57:34;5.90;99.90
21762;DHT22;11203;50.870;20.682;2023-03-14T05:00:00;5.90;70.40
21762;DHT22;11203;50.870;20.682;2023-03-14T05:02:26;5.80;99.90
21762;DHT22;11203;50.870;20.682;2023-03-14T05:04:53;5.70;99.90
21762;DHT22;11203;50.870;20.682;2023-03-14T05:07:19;5.60;99.90
21762;DHT22;11203;50.870;20.682;2023-03-14T05:09:45;5.60;99.90
21762;DHT22;11203;50.870;20.682;2023-03-14T05:12:11;5.70;99.90
21762;DHT22;11203;50.870;20.682;2023-03-14T05:14:37;5.60;99.90
21762;DHT22;11203;50.870;20.682;2023-03-14T05:17:05;5.60;99.90
21762;DHT22;11203;50.870;20.682;2023-03-14T05:19:31;5.70;99.90
21762;DHT22;11203;50.870;20.682;2023-03-14T05:21:57;5.70;99.90
21762;DHT22;11203;50.870;20.682;2023-03-14T05:24:23;5.60;99.90
21762;DHT22;11203;50.870;20.682;2023-03-14T05:26:49;5.60;99.90
21762;DHT22;11203;50.870;20.682;2023-03-14T05:29:16;5.70;45.30
21762;DHT22;11203;50.870;20.682;2023-03-14T05:31:42;5.70;1.00
21762;DHT22;11203;50.870;20.682;2023-03-14T05:34:08;5.70;66.80
21762;DHT22;11203;50.870;20.682;2023-03-14T05:36:34;5.80;1.00
21762;DHT22;11203;50.870;20.682;2023-03-14T05:39:00;5.80;8.90
21762;DHT22;11203;50.870;20.682;2023-03-14T05:41:26;5.90;37.30
21762;DHT22;11203;50.870;20.682;2023-03-14T05:43:52;6.00;99.90
21762;DHT22;11203;50.870;20.682;2023-03-14T05:46:18;6.00;1.00
21762;DHT22;11203;50.870;20.682;2023-03-14T05:48:44;6.00;1.00
21762;DHT22;11203;50.870;20.682;2023-03-14T05:51:10;6.00;1.00
21762;DHT22;11203;50.870;20.682;2023-03-14T05:53:37;6.00;1.00
21762;DHT22;11203;50.870;20.682;2023-03-14T05:56:03;6.00;1.00
21762;DHT22;11203;50.870;20.682;2023-03-14T05:58:29;6.00;1.00
21762;DHT22;11203;50.870;20.682;2023-03-14T06:00:55;6.00;1.00
21762;DHT22;11203;50.870;20.682;2023-03-14T06:03:21;6.00;21.30
21762;DHT22;11203;50.870;20.682;2023-03-14T06:05:50;6.10;1.00
21762;DHT22;11203;50.870;20.682;2023-03-14T06:08:17;6.10;1.00
21762;DHT22;11203;50.870;20.682;2023-03-14T06:10:43;6.10;78.10
21762;DHT22;11203;50.870;20.682;2023-03-14T06:13:09;6.10;37.00
21762;DHT22;11203;50.870;20.682;2023-03-14T06:15:35;6.20;99.90
21762;DHT22;11203;50.870;20.682;2023-03-14T06:18:01;6.30;99.90
21762;DHT22;11203;50.870;20.682;2023-03-14T06:20:27;6.50;99.90
21762;DHT22;11203;50.870;20.682;2023-03-14T06:22:53;6.60;99.90
21762;DHT22;11203;50.870;20.682;2023-03-14T06:25:19;6.70;1.00
21762;DHT22;11203;50.870;20.682;2023-03-14T06:27:46;6.70;1.00
21762;DHT22;11203;50.870;20.682;2023-03-14T06:30:12;6.90;1.00
21762;DHT22;11203;50.870;20.682;2023-03-14T06:32:39;7.00;1.00
21762;DHT22;11203;50.870;20.682;2023-03-14T06:35:06;7.20;1.00
21762;DHT22;11203;50.870;20.682;2023-03-14T06:37:32;7.30;1.00
21762;DHT22;11203;50.870;20.682;2023-03-14T06:39:58;7.40;99.90
21762;DHT22;11203;50.870;20.682;2023-03-14T06:42:24;7.50;1.00
21762;DHT22;11203;50.870;20.682;2023-03-14T06:44:50;7.70;1.00
21762;DHT22;11203;50.870;20.682;2023-03-14T06:47:17;7.80;1.00
21762;DHT22;11203;50.870;20.682;2023-03-14T06:49:43;7.90;99.90
21762;DHT22;11203;50.870;20.682;2023-03-14T06:52:09;8.10;1.00
21762;DHT22;11203;50.870;20.682;2023-03-14T06:54:35;8.20;1.00
21762;DHT22;11203;50.870;20.682;2023-03-14T06:57:01;8.30;99.90
21762;DHT22;11203;50.870;20.682;2023-03-14T06:59:28;8.30;1.00
21762;DHT22;11203;50.870;20.682;2023-03-14T07:01:55;8.40;1.00
21762;DHT22;11203;50.870;20.682;2023-03-14T07:04:20;8.50;99.90
21762;DHT22;11203;50.870;20.682;2023-03-14T07:06:47;8.60;1.00
21762;DHT22;11203;50.870;20.682;2023-03-14T07:09:14;8.70;99.90
21762;DHT22;11203;50.870;20.682;2023-03-14T07:11:43;8.70;99.90
21762;DHT22;11203;50.870;20.682;2023-03-14T07:14:09;8.70;99.90
21762;DHT22;11203;50.870;20.682;2023-03-14T07:16:35;8.80;29.30
21762;DHT22;11203;50.870;20.682;2023-03-14T07:19:02;8.90;99.90
21762;DHT22;11203;50.870;20.682;2023-03-14T07:21:28;9.00;99.90
21762;DHT22;11203;50.870;20.682;2023-03-14T07:23:54;9.00;99.90
21762;DHT22;11203;50.870;20.682;2023-03-14T07:26:21;9.10;1.00
21762;DHT22;11203;50.870;20.682;2023-03-14T07:28:47;9.20;1.00
21762;DHT22;11203;50.870;20.682;2023-03-14T07:31:13;9.30;1.00
21762;DHT22;11203;50.870;20.682;2023-03-14T07:33:39;9.40;1.00
21762;DHT22;11203;50.870;20.682;2023-03-14T07:36:06;9.60;98.20
21762;DHT22;11203;50.870;20.682;2023-03-14T07:38:32;9.70;99.90
21762;DHT22;11203;50.870;20.682;2023-03-14T07:41:07;9.70;99.90
21762;DHT22;11203;50.870;20.682;2023-03-14T07:43:34;9.90;1.00
21762;DHT22;11203;50.870;20.682;2023-03-14T07:46:00;9.90;1.00
21762;DHT22;11203;50.870;20.682;2023-03-14T07:48:27;10.00;91.70
21762;DHT22;11203;50.870;20.682;2023-03-14T07:50:54;10.00;99.90
21762;DHT22;11203;50.870;20.682;2023-03-14T07:53:21;10.10;99.90
21762;DHT22;11203;50.870;20.682;2023-03-14T07:55:48;10.10;1.00
21762;DHT22;11203;50.870;20.682;2023-03-14T07:58:17;10.20;99.90
21762;DHT22;11203;50.870;20.682;2023-03-14T08:00:44;10.30;99.90
21762;DHT22;11203;50.870;20.682;2023-03-14T08:03:10;10.40;99.90
21762;DHT22;11203;50.870;20.682;2023-03-14T08:05:37;10.50;1.00
21762;DHT22;11203;50.870;20.682;2023-03-14T08:08:04;10.50;1.00
21762;DHT22;11203;50.870;20.682;2023-03-14T08:10:32;10.50;1.00
21762;DHT22;11203;50.870;20.682;2023-03-14T08:12:59;10.50;99.90
21762;DHT22;11203;50.870;20.682;2023-03-14T08:15:28;10.50;1.00
21762;DHT22;11203;50.870;20.682;2023-03-14T08:17:55;10.40;1.00
21762;DHT22;11203;50.870;20.682;2023-03-14T08:20:24;10.50;1.00
21762;DHT22;11203;50.870;20.682;2023-03-14T08:22:51;10.50;1.00
21762;DHT22;11203;50.870;20.682;2023-03-14T08:25:18;10.50;1.00
21762;DHT22;11203;50.870;20.682;2023-03-14T08:27:44;10.60;1.00
21762;DHT22;11203;50.870;20.682;2023-03-14T08:30:13;10.70;1.00
21762;DHT22;11203;50.870;20.682;2023-03-14T08:32:43;10.70;1.00
21762;DHT22;11203;50.870;20.682;2023-03-14T08:35:09;10.90;1.00
21762;DHT22;11203;50.870;20.682;2023-03-14T08:37:36;11.00;1.00
21762;DHT22;11203;50.870;20.682;2023-03-14T08:40:04;11.00;99.90
21762;DHT22;11203;50.870;20.682;2023-03-14T08:42:34;11.00;1.00
21762;DHT22;11203;50.870;20.682;2023-03-14T08:45:00;11.10;1.00
21762;DHT22;11203;50.870;20.682;2023-03-14T08:47:26;11.20;99.90
21762;DHT22;11203;50.870;20.682;2023-03-14T08:49:53;11.30;1.00
21762;DHT22;11203;50.870;20.682;2023-03-14T08:52:19;11.30;1.00
21762;DHT22;11203;50.870;20.682;2023-03-14T08:54:46;11.40;1.00
21762;DHT22;11203;50.870;20.682;2023-03-14T08:57:12;11.50;99.90
21762;DHT22;11203;50.870;20.682;2023-03-14T08:59:38;11.50;1.00
21762;DHT22;11203;50.870;20.682;2023-03-14T09:02:05;11.60;1.00
21762;DHT22;11203;50.870;20.682;2023-03-14T09:04:32;11.60;1.00
21762;DHT22;11203;50.870;20.682;2023-03-14T09:06:59;11.70;99.90
21762;DHT22;11203;50.870;20.682;2023-03-14T09:09:25;11.80;1.00
21762;DHT22;11203;50.870;20.682;2023-03-14T09:11:56;11.90;1.00
21762;DHT22;11203;50.870;20.682;2023-03-14T09:14:23;12.10;99.90
21762;DHT22;11203;50.870;20.682;2023-03-14T09:16:49;12.30;1.00
21762;DHT22;11203;50.870;20.682;2023-03-14T09:19:16;12.30;99.90
21762;DHT22;11203;50.870;20.682;2023-03-14T09:21:42;12.60;1.00
21762;DHT22;11203;50.870;20.682;2023-03-14T09:24:09;12.80;1.00
21762;DHT22;11203;50.870;20.682;2023-03-14T09:26:35;12.90;1.00
21762;DHT22;11203;50.870;20.682;2023-03-14T09:29:01;12.90;1.00
21762;DHT22;11203;50.870;20.682;2023-03-14T09:31:27;13.10;1.00
21762;DHT22;11203;50.870;20.682;2023-03-14T09:33:54;13.10;1.00
21762;DHT22;11203;50.870;20.682;2023-03-14T09:36:20;13.30;99.90
21762;DHT22;11203;50.870;20.682;2023-03-14T09:38:47;13.40;1.00
21762;DHT22;11203;50.870;20.682;2023-03-14T09:41:21;13.50;1.00
21762;DHT22;11203;50.870;20.682;2023-03-14T09:44:30;13.50;1.00
21762;DHT22;11203;50.870;20.682;2023-03-14T09:47:06;13.70;99.90
21762;DHT22;11203;50.870;20.682;2023-03-14T09:49:36;13.80;1.00
21762;DHT22;11203;50.870;20.682;2023-03-14T09:54:49;13.70;67.80
21762;DHT22;11203;50.870;20.682;2023-03-14T09:57:19;13.70;1.00
21762;DHT22;11203;50.870;20.682;2023-03-14T09:59:49;13.70;1.00
21762;DHT22;11203;50.870;20.682;2023-03-14T10:02:22;13.60;99.90
21762;DHT22;11203;50.870;20.682;2023-03-14T10:04:52;13.60;1.00
21762;DHT22;11203;50.870;20.682;2023-03-14T10:07:29;13.60;99.90
21762;DHT22;11203;50.870;20.682;2023-03-14T10:09:57;13.60;99.90
21762;DHT22;11203;50.870;20.682;2023-03-14T10:12:34;13.80;99.90
21762;DHT22;11203;50.870;20.682;2023-03-14T10:15:07;13.90;1.00
21762;DHT22;11203;50.870;20.682;2023-03-14T10:17:43;14.00;99.90
21762;DHT22;11203;50.870;20.682;2023-03-14T10:25:39;14.20;99.90
21762;DHT22;11203;50.870;20.682;2023-03-14T10:28:27;14.30;99.90
21762;DHT22;11203;50.870;20.682;2023-03-14T10:30:57;14.50;99.90
21762;DHT22;11203;50.870;20.682;2023-03-14T10:33:26;14.70;99.90
21762;DHT22;11203;50.870;20.682;2023-03-14T10:36:06;14.90;99.90
21762;DHT22;11203;50.870;20.682;2023-03-14T10:38:43;14.70;99.90
21762;DHT22;11203;50.870;20.682;2023-03-14T10:41:36;14.40;99.90
21762;DHT22;11203;50.870;20.682;2023-03-14T10:44:02;13.90;99.90
21762;DHT22;11203;50.870;20.682;2023-03-14T10:46:31;13.70;99.90
21762;DHT22;11203;50.870;20.682;2023-03-14T10:48:58;13.70;49.50
21762;DHT22;11203;50.870;20.682;2023-03-14T10:51:26;13.90;46.10
21762;DHT22;11203;50.870;20.682;2023-03-14T10:53:58;13.80;99.90
21762;DHT22;11203;50.870;20.682;2023-03-14T10:57:00;13.90;99.90
21762;DHT22;11203;50.870;20.682;2023-03-14T10:59:36;14.20;99.90
21762;DHT22;11203;50.870;20.682;2023-03-14T11:02:32;14.40;99.90
21762;DHT22;11203;50.870;20.682;2023-03-14T11:08:12;14.10;1.00
21762;DHT22;11203;50.870;20.682;2023-03-14T11:10:49;14.00;99.90
21762;DHT22;11203;50.870;20.682;2023-03-14T11:13:30;14.00;99.90
21762;DHT22;11203;50.870;20.682;2023-03-14T11:19:57;13.80;99.90
21762;DHT22;11203;50.870;20.682;2023-03-14T11:22:47;13.90;99.90
21762;DHT22;11203;50.870;20.682;2023-03-14T11:28:36;13.70;1.00
21762;DHT22;11203;50.870;20.682;2023-03-14T11:36:44;13.70;99.90
21762;DHT22;11203;50.870;20.682;2023-03-14T11:39:16;13.80;1.00
21762;DHT22;11203;50.870;20.682;2023-03-14T11:41:47;13.90;99.90
21762;DHT22;11203;50.870;20.682;2023-03-14T11:44:24;13.90;1.00
21762;DHT22;11203;50.870;20.682;2023-03-14T11:47:10;13.90;44.30
21762;DHT22;11203;50.870;20.682;2023-03-14T11:57:55;13.70;1.00
21762;DHT22;11203;50.870;20.682;2023-03-14T12:00:24;13.70;99.90
21762;DHT22;11203;50.870;20.682;2023-03-14T12:03:23;13.60;99.90
21762;DHT22;11203;50.870;20.682;2023-03-14T12:08:55;13.50;99.90
21762;DHT22;11203;50.870;20.682;2023-03-14T12:11:40;13.40;1.00
21762;DHT22;11203;50.870;20.682;2023-03-14T12:14:29;13.30;1.00
21762;DHT22;11203;50.870;20.682;2023-03-14T12:19:41;13.10;1.00
21762;DHT22;11203;50.870;20.682;2023-03-14T12:22:21;13.00;58.70
21762;DHT22;11203;50.870;20.682;2023-03-14T12:30:36;12.80;1.00
21762;DHT22;11203;50.870;20.682;2023-03-14T12:33:31;12.80;99.90
21762;DHT22;11203;50.870;20.682;2023-03-14T12:36:00;12.80;1.00
21762;DHT22;11203;50.870;20.682;2023-03-14T12:38:51;12.70;1.00
21762;DHT22;11203;50.870;20.682;2023-03-14T12:47:00;12.50;99.10
21762;DHT22;11203;50.870;20.682;2023-03-14T12:49:48;12.50;1.00
21762;DHT22;11203;50.870;20.682;2023-03-14T12:52:22;12.40;1.00
21762;DHT22;11203;50.870;20.682;2023-03-14T13:00:34;12.30;99.90
21762;DHT22;11203;50.870;20.682;2023-03-14T13:03:20;12.30;99.90
21762;DHT22;11203;50.870;20.682;2023-03-14T13:05:56;12.30;1.00
21762;DHT22;11203;50.870;20.682;2023-03-14T13:08:44;12.30;1.00
21762;DHT22;11203;50.870;20.682;2023-03-14T13:11:18;12.20;99.90
21762;DHT22;11203;50.870;20.682;2023-03-14T13:13:56;12.20;99.90
21762;DHT22;11203;50.870;20.682;2023-03-14T13:16:24;12.20;99.90
21762;DHT22;11203;50.870;20.682;2023-03-14T13:19:03;12.20;99.90
21762;DHT22;11203;50.870;20.682;2023-03-14T13:21:42;12.20;1.00
21762;DHT22;11203;50.870;20.682;2023-03-14T13:24:25;12.20;1.00
21762;DHT22;11203;50.870;20.682;2023-03-14T13:26:55;12.30;1.00
21762;DHT22;11203;50.870;20.682;2023-03-14T13:31:59;12.30;99.90
21762;DHT22;11203;50.870;20.682;2023-03-14T13:34:33;12.20;1.00
21762;DHT22;11203;50.870;20.682;2023-03-14T13:37:00;12.20;99.90
21762;DHT22;11203;50.870;20.682;2023-03-14T13:39:28;12.20;1.00
21762;DHT22;11203;50.870;20.682;2023-03-14T13:41:59;12.10;1.00
21762;DHT22;11203;50.870;20.682;2023-03-14T13:44:33;12.00;1.00
21762;DHT22;11203;50.870;20.682;2023-03-14T13:47:05;12.00;1.00
21762;DHT22;11203;50.870;20.682;2023-03-14T13:49:37;12.00;1.00
21762;DHT22;11203;50.870;20.682;2023-03-14T13:52:32;12.10;1.00
21762;DHT22;11203;50.870;20.682;2023-03-14T13:55:04;12.20;1.00
21762;DHT22;11203;50.870;20.682;2023-03-14T13:57:48;12.20;1.00
21762;DHT22;11203;50.870;20.682;2023-03-14T14:00:26;12.10;1.00
21762;DHT22;11203;50.870;20.682;2023-03-14T14:02:55;12.10;1.00
21762;DHT22;11203;50.870;20.682;2023-03-14T14:05:27;12.10;99.90
21762;DHT22;11203;50.870;20.682;2023-03-14T14:07:55;12.10;1.00
21762;DHT22;11203;50.870;20.682;2023-03-14T14:10:22;12.00;1.00
21762;DHT22;11203;50.870;20.682;2023-03-14T14:13:10;12.00;1.00
21762;DHT22;11203;50.870;20.682;2023-03-14T14:15:45;12.00;1.00
21762;DHT22;11203;50.870;20.682;2023-03-14T14:18:17;12.00;1.00
21762;DHT22;11203;50.870;20.682;2023-03-14T14:20:47;12.00;1.00
21762;DHT22;11203;50.870;20.682;2023-03-14T14:23:20;11.90;99.90
21762;DHT22;11203;50.870;20.682;2023-03-14T14:25:56;11.90;99.90
21762;DHT22;11203;50.870;20.682;2023-03-14T14:28:30;11.80;99.90
21762;DHT22;11203;50.870;20.682;2023-03-14T14:31:18;11.70;1.00
21762;DHT22;11203;50.870;20.682;2023-03-14T14:36:31;11.70;99.90
21762;DHT22;11203;50.870;20.682;2023-03-14T14:39:00;11.60;99.90
21762;DHT22;11203;50.870;20.682;2023-03-14T14:41:39;11.60;99.90
21762;DHT22;11203;50.870;20.682;2023-03-14T14:44:06;11.60;1.00
21762;DHT22;11203;50.870;20.682;2023-03-14T14:46:36;11.50;1.00
21762;DHT22;11203;50.870;20.682;2023-03-14T14:49:09;11.50;1.00
21762;DHT22;11203;50.870;20.682;2023-03-14T14:51:48;11.40;1.00
21762;DHT22;11203;50.870;20.682;2023-03-14T14:54:31;11.30;1.00
21762;DHT22;11203;50.870;20.682;2023-03-14T14:57:05;11.30;1.00
21762;DHT22;11203;50.870;20.682;2023-03-14T14:59:49;11.30;99.90
21762;DHT22;11203;50.870;20.682;2023-03-14T15:02:30;11.20;98.70
21762;DHT22;11203;50.870;20.682;2023-03-14T15:05:18;11.20;99.90
21762;DHT22;11203;50.870;20.682;2023-03-14T15:07:48;11.20;99.90
21762;DHT22;11203;50.870;20.682;2023-03-14T15:10:18;11.20;1.00
21762;DHT22;11203;50.870;20.682;2023-03-14T15:12:46;11.20;99.90
21762;DHT22;11203;50.870;20.682;2023-03-14T15:15:14;11.20;99.90
21762;DHT22;11203;50.870;20.682;2023-03-14T15:17:41;11.20;99.90
21762;DHT22;11203;50.870;20.682;2023-03-14T15:20:16;11.20;99.90
21762;DHT22;11203;50.870;20.682;2023-03-14T15:22:44;11.20;1.00
21762;DHT22;11203;50.870;20.682;2023-03-14T15:25:12;11.20;1.00
21762;DHT22;11203;50.870;20.682;2023-03-14T15:27:41;11.20;1.00
21762;DHT22;11203;50.870;20.682;2023-03-14T15:30:15;11.10;99.90
21762;DHT22;11203;50.870;20.682;2023-03-14T15:32:43;11.10;99.90
21762;DHT22;11203;50.870;20.682;2023-03-14T17:50:47;9.40;1.00
21762;DHT22;11203;50.870;20.682;2023-03-14T17:53:14;9.40;3.50
21762;DHT22;11203;50.870;20.682;2023-03-14T17:55:41;9.30;1.00
21762;DHT22;11203;50.870;20.682;2023-03-14T18:00:43;9.40;1.00
21762;DHT22;11203;50.870;20.682;2023-03-14T18:03:09;9.40;1.00
21762;DHT22;11203;50.870;20.682;2023-03-14T18:05:39;9.40;1.00
21762;DHT22;11203;50.870;20.682;2023-03-14T18:08:07;9.30;1.00
21762;DHT22;11203;50.870;20.682;2023-03-14T18:10:37;9.20;99.90
21762;DHT22;11203;50.870;20.682;2023-03-14T18:13:04;9.20;28.90
21762;DHT22;11203;50.870;20.682;2023-03-14T18:15:30;9.20;1.00
21762;DHT22;11203;50.870;20.682;2023-03-14T18:18:02;9.30;1.00
21762;DHT22;11203;50.870;20.682;2023-03-14T18:20:28;9.10;99.90
21762;DHT22;11203;50.870;20.682;2023-03-14T18:22:55;9.00;99.90
21762;DHT22;11203;50.870;20.682;2023-03-14T18:25:21;9.10;99.90
21762;DHT22;11203;50.870;20.682;2023-03-14T18:27:47;9.10;99.90
21762;DHT22;11203;50.870;20.682;2023-03-14T18:30:14;9.00;1.00
21762;DHT22;11203;50.870;20.682;2023-03-14T18:32:40;9.00;1.00
21762;DHT22;11203;50.870;20.682;2023-03-14T18:35:06;9.00;1.00
21762;DHT22;11203;50.870;20.682;2023-03-14T18:37:33;9.00;99.90
21762;DHT22;11203;50.870;20.682;2023-03-14T18:39:59;9.00;99.90
21762;DHT22;11203;50.870;20.682;2023-03-14T18:42:25;9.00;99.90
21762;DHT22;11203;50.870;20.682;2023-03-14T18:44:51;8.90;1.00
21762;DHT22;11203;50.870;20.682;2023-03-14T18:47:17;8.90;1.00
21762;DHT22;11203;50.870;20.682;2023-03-14T18:49:43;8.80;1.00
21762;DHT22;11203;50.870;20.682;2023-03-14T18:52:09;8.70;76.20
21762;DHT22;11203;50.870;20.682;2023-03-14T18:54:35;8.60;99.90
21762;DHT22;11203;50.870;20.682;2023-03-14T18:57:02;8.60;99.90
21762;DHT22;11203;50.870;20.682;2023-03-14T18:59:28;8.60;99.90
21762;DHT22;11203;50.870;20.682;2023-03-14T19:01:54;8.60;99.90
21762;DHT22;11203;50.870;20.682;2023-03-14T19:04:20;8.50;99.90
21762;DHT22;11203;50.870;20.682;2023-03-14T19:06:47;8.40;99.90
21762;DHT22;11203;50.870;20.682;2023-03-14T19:09:14;8.40;1.00
21762;DHT22;11203;50.870;20.682;2023-03-14T19:11:42;8.40;1.00
21762;DHT22;11203;50.870;20.682;2023-03-14T19:14:08;8.40;99.90